createdAt,value
2017-06-03T00:02:00.559Z,63.80
2017-06-03T00:04:29.377Z,63.00
2017-06-03T00:06:58.211Z,62.20
2017-06-03T00:09:27.062Z,62.20
2017-06-03T00:11:55.875Z,62.30
2017-06-03T00:14:24.723Z,62.20
2017-06-03T00:16:55.867Z,62.10
2017-06-03T00:19:24.723Z,64.10
2017-06-03T00:21:53.547Z,65.00
2017-06-03T00:24:22.383Z,65.70
2017-06-03T00:26:51.875Z,65.70
2017-06-03T00:29:20.731Z,64.20
2017-06-03T00:31:49.543Z,63.30
2017-06-03T00:34:18.383Z,62.70
2017-06-03T00:36:47.202Z,62.50
2017-06-03T00:39:16.123Z,62.10
2017-06-03T00:41:46.826Z,60.90
2017-06-03T00:44:15.651Z,61.60
2017-06-03T00:46:44.459Z,61.50
2017-06-03T00:49:13.307Z,61.00
2017-06-03T00:51:42.127Z,61.20
2017-06-03T00:54:10.939Z,61.40
2017-06-03T00:56:39.787Z,61.20
2017-06-03T00:59:08.806Z,61.20
2017-06-03T01:01:37.626Z,60.70
2017-06-03T01:04:06.474Z,60.70
2017-06-03T01:06:35.286Z,60.80
2017-06-03T01:09:04.130Z,61.10
2017-06-03T01:11:32.307Z,61.10
2017-06-03T01:14:01.143Z,60.60
2017-06-03T01:16:29.976Z,60.40
2017-06-03T01:18:58.794Z,60.30
2017-06-03T01:21:27.607Z,59.90
2017-06-03T01:23:56.422Z,59.90
2017-06-03T01:26:24.514Z,59.90
2017-06-03T01:28:53.265Z,58.90
2017-06-03T01:31:22.037Z,58.90
2017-06-03T01:33:50.838Z,59.10
2017-06-03T01:36:19.629Z,59.40
2017-06-03T01:38:52.823Z,60.80
2017-06-03T01:41:20.825Z,60.80
2017-06-03T01:43:49.601Z,64.60
2017-06-03T01:46:20.351Z,65.60
2017-06-03T01:48:49.141Z,67.00
2017-06-03T01:51:17.917Z,68.40
2017-06-03T01:53:46.724Z,68.80
2017-06-03T01:56:15.493Z,68.80
2017-06-03T01:58:44.264Z,68.20
2017-06-03T02:01:13.073Z,67.20
2017-06-03T02:03:41.072Z,67.10
2017-06-03T02:06:09.850Z,66.10
2017-06-03T02:08:38.644Z,65.70
2017-06-03T02:11:07.417Z,65.10
2017-06-03T02:13:36.189Z,64.40
2017-06-03T02:16:04.969Z,63.10
2017-06-03T02:18:33.732Z,61.40
2017-06-03T02:21:02.505Z,61.00
2017-06-03T02:23:31.305Z,62.50
2017-06-03T02:26:00.989Z,61.60
2017-06-03T02:28:29.760Z,62.40
2017-06-03T02:30:58.565Z,62.50
2017-06-03T02:33:27.372Z,62.80
2017-06-03T02:35:56.156Z,62.90
2017-06-03T02:38:24.952Z,63.00
2017-06-03T02:40:54.652Z,62.60
2017-06-03T02:43:26.465Z,63.30
2017-06-03T02:45:55.240Z,63.60
2017-06-03T02:48:24.020Z,63.30
2017-06-03T02:50:52.808Z,63.50
2017-06-03T02:53:21.572Z,63.60
2017-06-03T02:55:50.365Z,62.80
2017-06-03T02:58:19.168Z,62.80
2017-06-03T03:00:47.940Z,61.90
2017-06-03T03:03:16.716Z,61.30
2017-06-03T03:05:45.531Z,60.90
2017-06-03T03:08:14.356Z,60.60
2017-06-03T03:10:43.456Z,60.60
2017-06-03T03:13:12.255Z,61.60
2017-06-03T03:15:41.028Z,62.00
2017-06-03T03:18:09.800Z,63.00
2017-06-03T03:20:38.576Z,64.50
2017-06-03T03:23:07.363Z,64.60
2017-06-03T03:25:36.128Z,65.10
2017-06-03T03:28:04.904Z,65.00
2017-06-03T03:30:33.680Z,65.30
2017-06-03T03:33:02.457Z,65.00
2017-06-03T03:35:31.255Z,65.40
2017-06-03T03:38:00.024Z,65.90
2017-06-03T03:40:28.851Z,65.00
2017-06-03T03:42:57.683Z,65.00
2017-06-03T03:45:26.487Z,65.30
2017-06-03T03:47:55.255Z,65.40
2017-06-03T03:50:24.144Z,65.10
2017-06-03T03:52:52.919Z,64.70
2017-06-03T03:55:21.700Z,64.70
2017-06-03T03:57:50.603Z,65.40
2017-06-03T04:00:19.387Z,66.40
2017-06-03T04:02:48.267Z,66.90
2017-06-03T04:05:17.184Z,67.40
2017-06-03T04:07:46.069Z,67.50
2017-06-03T04:10:14.855Z,67.50
2017-06-03T04:12:43.679Z,67.50
2017-06-03T04:15:12.455Z,66.90
2017-06-03T04:17:41.313Z,67.70
2017-06-03T04:20:10.106Z,68.10
2017-06-03T04:22:38.891Z,69.10
2017-06-03T04:25:07.707Z,69.70
2017-06-03T04:27:36.551Z,69.20
2017-06-03T04:30:05.299Z,69.00
2017-06-03T04:32:34.063Z,69.10
2017-06-03T04:35:02.863Z,68.50
2017-06-03T04:37:31.635Z,68.40
2017-06-03T04:40:00.899Z,68.40
2017-06-03T04:42:29.663Z,68.70
2017-06-03T04:44:58.430Z,68.90
2017-06-03T04:47:27.271Z,68.60
2017-06-03T04:49:56.172Z,69.00
2017-06-03T04:52:24.951Z,68.90
2017-06-03T04:54:53.718Z,68.60
2017-06-03T04:57:23.186Z,69.60
2017-06-03T04:59:52.034Z,68.40
2017-06-03T05:02:20.819Z,68.90
2017-06-03T05:04:49.710Z,69.20
2017-06-03T05:07:18.482Z,69.00
2017-06-03T05:09:47.282Z,68.50
2017-06-03T05:12:16.174Z,68.70
2017-06-03T05:14:45.375Z,68.40
2017-06-03T05:17:14.106Z,69.00
2017-06-03T05:19:42.990Z,69.10
2017-06-03T05:22:11.787Z,68.20
2017-06-03T05:24:40.626Z,68.10
2017-06-03T05:27:09.438Z,67.80
2017-06-03T05:29:38.247Z,68.00
2017-06-03T05:32:07.006Z,68.20
2017-06-03T05:34:35.798Z,68.60
2017-06-03T05:37:04.612Z,68.20
2017-06-03T05:39:33.378Z,68.30
2017-06-03T05:42:02.162Z,67.50
2017-06-03T05:44:30.933Z,67.40
2017-06-03T05:46:59.706Z,67.80
2017-06-03T05:49:28.495Z,67.50
2017-06-03T05:51:57.286Z,67.70
2017-06-03T05:54:26.050Z,67.50
2017-06-03T05:56:54.961Z,67.30
2017-06-03T05:59:23.762Z,67.40
2017-06-03T06:01:52.642Z,68.20
2017-06-03T06:04:21.430Z,69.40
2017-06-03T06:06:50.206Z,68.70
2017-06-03T06:09:19.626Z,66.90
2017-06-03T06:11:48.404Z,66.60
2017-06-03T06:14:17.170Z,65.50
2017-06-03T06:16:45.933Z,66.20
2017-06-03T06:19:14.705Z,66.00
2017-06-03T06:21:44.030Z,66.20
2017-06-03T06:24:13.673Z,65.30
2017-06-03T06:26:42.463Z,64.80
2017-06-03T06:29:11.253Z,64.60
2017-06-03T06:31:40.013Z,63.90
2017-06-03T06:34:08.826Z,64.10
2017-06-03T06:36:37.593Z,63.90
2017-06-03T06:39:06.357Z,63.10
2017-06-03T06:41:35.142Z,64.10
2017-06-03T06:44:03.994Z,62.30
2017-06-03T06:46:32.865Z,61.80
2017-06-03T06:49:01.653Z,63.00
2017-06-03T06:51:30.441Z,60.50
2017-06-03T06:53:59.321Z,60.30
2017-06-03T06:56:28.121Z,60.00
2017-06-03T06:58:56.962Z,60.60
2017-06-03T07:01:25.801Z,60.20
2017-06-03T07:03:54.676Z,59.90
2017-06-03T07:06:23.441Z,59.40
2017-06-03T07:08:52.261Z,59.60
2017-06-03T07:11:21.145Z,60.20
2017-06-03T07:13:49.908Z,59.70
2017-06-03T07:16:18.668Z,59.20
2017-06-03T07:18:47.437Z,58.80
2017-06-03T07:21:16.329Z,59.80
2017-06-03T07:23:45.088Z,59.20
2017-06-03T07:26:13.980Z,58.90
2017-06-03T07:28:42.769Z,59.70
2017-06-03T07:31:11.536Z,58.90
2017-06-03T07:33:40.364Z,58.50
2017-06-03T07:36:14.832Z,58.80
2017-06-03T07:38:49.289Z,58.30
2017-06-03T07:41:23.605Z,58.20
2017-06-03T07:43:57.872Z,57.50
2017-06-03T07:46:32.232Z,57.80
2017-06-03T07:49:06.592Z,56.80
2017-06-03T07:51:40.900Z,56.60
2017-06-03T07:54:15.296Z,56.40
2017-06-03T07:56:49.752Z,57.90
2017-06-03T07:59:24.132Z,56.50
2017-06-03T08:01:58.656Z,56.40
2017-06-03T08:04:32.916Z,57.20
2017-06-03T08:07:07.296Z,58.10
2017-06-03T08:09:41.884Z,57.70
2017-06-03T08:12:16.156Z,56.80
2017-06-03T08:14:50.462Z,57.10
2017-06-03T08:17:24.740Z,56.20
2017-06-03T08:19:59.099Z,56.70
2017-06-03T08:22:33.528Z,56.50
2017-06-03T08:25:07.852Z,56.40
2017-06-03T08:27:42.288Z,55.80
2017-06-03T08:30:16.712Z,56.90
2017-06-03T08:32:51.246Z,56.20
2017-06-03T08:35:25.791Z,55.50
2017-06-03T08:38:00.179Z,56.20
2017-06-03T08:40:34.636Z,55.30
2017-06-03T08:43:08.151Z,55.30
2017-06-03T08:45:42.484Z,54.60
2017-06-03T08:48:16.928Z,55.70
2017-06-03T08:50:51.480Z,54.10
2017-06-03T08:53:25.811Z,53.50
2017-06-03T08:56:00.236Z,52.90
2017-06-03T08:58:34.796Z,51.60
2017-06-03T09:01:09.111Z,52.00
2017-06-03T09:03:43.407Z,51.80
2017-06-03T09:06:17.751Z,52.90
2017-06-03T09:08:52.243Z,52.40
2017-06-03T09:11:26.584Z,53.90
2017-06-03T09:14:01.031Z,51.40
2017-06-03T09:16:35.408Z,53.00
2017-06-03T09:19:09.720Z,53.10
2017-06-03T09:21:44.035Z,52.80
2017-06-03T09:24:18.371Z,52.40
2017-06-03T09:26:54.603Z,52.00
2017-06-03T09:29:28.911Z,50.30
2017-06-03T09:32:03.259Z,50.40
2017-06-03T09:34:37.543Z,49.40
2017-06-03T09:37:11.872Z,50.70
2017-06-03T09:39:46.199Z,50.60
2017-06-03T09:42:20.555Z,48.70
2017-06-03T09:44:54.896Z,49.80
2017-06-03T09:47:29.307Z,50.30
2017-06-03T09:50:03.575Z,49.70
2017-06-03T09:52:37.851Z,46.30
2017-06-03T09:55:12.195Z,47.40
2017-06-03T09:57:46.527Z,46.80
2017-06-03T10:00:20.847Z,46.10
2017-06-03T10:02:55.139Z,46.60
2017-06-03T10:05:29.486Z,45.50
2017-06-03T10:08:03.775Z,45.80
2017-06-03T10:10:38.047Z,46.30
2017-06-03T10:13:12.430Z,46.10
2017-06-03T10:15:46.715Z,46.50
2017-06-03T10:18:21.046Z,45.80
2017-06-03T10:20:55.464Z,44.20
2017-06-03T10:23:29.803Z,44.50
2017-06-03T10:26:04.147Z,44.70
2017-06-03T10:28:38.526Z,44.10
2017-06-03T10:31:12.858Z,44.30
2017-06-03T10:33:47.214Z,43.30
2017-06-03T10:36:21.458Z,43.30
2017-06-03T10:38:55.751Z,42.60
2017-06-03T10:41:30.066Z,45.00
2017-06-03T10:44:04.419Z,43.50
2017-06-03T10:46:38.731Z,44.00
2017-06-03T10:49:13.078Z,44.90
2017-06-03T10:51:47.391Z,44.60
2017-06-03T10:54:21.678Z,44.10
2017-06-03T10:56:56.926Z,44.30
2017-06-03T10:59:31.382Z,43.90
2017-06-03T11:02:05.666Z,43.90
2017-06-03T11:04:39.926Z,44.00
2017-06-03T11:07:14.214Z,44.60
2017-06-03T11:09:48.550Z,44.50
2017-06-03T11:12:22.846Z,45.50
2017-06-03T11:14:57.206Z,46.20
2017-06-03T11:17:31.498Z,45.50
2017-06-03T11:20:05.906Z,44.00
2017-06-03T11:22:40.218Z,44.30
2017-06-03T11:25:14.578Z,44.00
2017-06-03T11:27:48.958Z,44.50
2017-06-03T11:30:23.358Z,42.40
2017-06-03T11:32:57.690Z,43.90
2017-06-03T11:35:32.018Z,43.60
2017-06-03T11:38:06.322Z,42.60
2017-06-03T11:40:40.630Z,43.30
2017-06-03T11:43:15.002Z,41.90
2017-06-03T11:45:49.286Z,43.20
2017-06-03T11:48:23.685Z,43.20
2017-06-03T11:50:58.026Z,42.50
2017-06-03T11:53:32.329Z,42.50
2017-06-03T11:56:06.634Z,43.10
2017-06-03T11:58:40.873Z,44.90
2017-06-03T12:01:15.194Z,43.70
2017-06-03T12:03:49.497Z,42.40
2017-06-03T12:06:23.830Z,43.00
2017-06-03T12:08:58.110Z,43.50
2017-06-03T12:11:32.409Z,43.40
2017-06-03T12:14:06.774Z,43.70
2017-06-03T12:16:41.058Z,43.40
2017-06-03T12:19:15.358Z,43.40
2017-06-03T12:21:49.730Z,43.40
2017-06-03T12:24:24.162Z,43.20
2017-06-03T12:26:58.474Z,43.10
2017-06-03T12:29:32.781Z,42.20
2017-06-03T12:32:07.054Z,42.00
2017-06-03T12:34:41.414Z,41.20
2017-06-03T12:37:16.638Z,41.00
2017-06-03T12:39:51.017Z,41.50
2017-06-03T12:42:25.374Z,41.90
2017-06-03T12:44:59.605Z,42.70
2017-06-03T12:47:33.861Z,42.50
2017-06-03T12:50:08.145Z,42.90
2017-06-03T12:52:42.469Z,43.00
2017-06-03T12:55:16.773Z,43.00
2017-06-03T12:57:51.101Z,43.20
2017-06-03T13:00:25.409Z,44.20
2017-06-03T13:02:59.734Z,44.70
2017-06-03T13:05:34.145Z,44.30
2017-06-03T13:08:08.525Z,46.20
2017-06-03T13:10:42.809Z,55.70
2017-06-03T13:13:17.261Z,56.50
2017-06-03T13:15:51.633Z,53.00
2017-06-03T13:18:25.969Z,53.70
2017-06-03T13:21:00.213Z,56.60
2017-06-03T13:23:34.533Z,53.90
2017-06-03T13:26:08.897Z,59.30
2017-06-03T13:28:43.213Z,56.20
2017-06-03T13:31:17.629Z,54.30
2017-06-03T13:33:52.077Z,56.80
2017-06-03T13:36:26.463Z,62.70
2017-06-03T13:39:00.921Z,61.50
2017-06-03T13:41:35.281Z,62.10
2017-06-03T13:44:09.573Z,62.00
2017-06-03T13:46:43.873Z,61.70
2017-06-03T13:49:18.185Z,59.80
2017-06-03T13:51:52.493Z,59.40
2017-06-03T13:54:26.785Z,62.30
2017-06-03T13:57:01.120Z,63.30
2017-06-03T13:59:35.428Z,63.50
2017-06-03T14:02:09.716Z,63.20
2017-06-03T14:04:44.073Z,64.20
2017-06-03T14:07:18.364Z,65.30
2017-06-03T14:09:52.733Z,63.50
2017-06-03T14:12:27.007Z,61.40
2017-06-03T14:15:01.313Z,61.00
2017-06-03T14:17:35.621Z,62.10
2017-06-03T14:20:09.989Z,60.00
2017-06-03T14:22:44.249Z,59.50
2017-06-03T14:25:18.576Z,59.00
2017-06-03T14:27:52.912Z,58.50
2017-06-03T14:30:27.256Z,58.90
2017-06-03T14:33:01.544Z,58.90
2017-06-03T14:35:35.805Z,57.20
2017-06-03T14:38:10.176Z,56.90
2017-06-03T14:40:44.444Z,56.50
2017-06-03T14:43:18.814Z,55.40
2017-06-03T14:45:53.140Z,55.60
2017-06-03T14:48:27.428Z,54.30
2017-06-03T14:51:01.892Z,54.30
2017-06-03T14:53:36.334Z,53.20
2017-06-03T14:56:10.756Z,53.30
2017-06-03T14:58:45.149Z,52.70
2017-06-03T15:01:19.496Z,51.50
2017-06-03T15:03:54.715Z,52.10
2017-06-03T15:06:29.151Z,52.80
2017-06-03T15:09:03.536Z,52.50
2017-06-03T15:11:37.860Z,52.40
2017-06-03T15:14:12.171Z,52.60
2017-06-03T15:16:46.472Z,52.00
2017-06-03T15:19:20.846Z,52.40
2017-06-03T15:21:55.224Z,52.80
2017-06-03T15:24:29.544Z,52.80
2017-06-03T15:27:03.948Z,51.00
2017-06-03T15:29:38.300Z,49.80
2017-06-03T15:32:12.831Z,50.60
2017-06-03T15:34:47.259Z,50.30
2017-06-03T15:37:21.732Z,49.20
2017-06-03T15:39:56.147Z,48.50
2017-06-03T15:42:30.487Z,48.00
2017-06-03T15:45:04.879Z,45.70
2017-06-03T15:47:39.207Z,45.20
2017-06-03T15:50:13.495Z,44.90
2017-06-03T15:52:42.274Z,44.70
2017-06-03T15:55:11.043Z,44.30
2017-06-03T15:57:39.807Z,43.80
2017-06-03T16:00:08.595Z,44.00
2017-06-03T16:02:37.355Z,41.20
2017-06-03T16:05:06.127Z,43.60
2017-06-03T16:07:34.895Z,43.00
2017-06-03T16:10:03.660Z,41.60
2017-06-03T16:12:32.423Z,42.30
2017-06-03T16:15:01.206Z,43.00
2017-06-03T16:17:29.987Z,42.80
2017-06-03T16:19:58.758Z,42.20
2017-06-03T16:22:27.534Z,42.70
2017-06-03T16:24:56.294Z,41.40
2017-06-03T16:27:25.059Z,40.90
2017-06-03T16:29:53.827Z,40.80
2017-06-03T16:32:22.591Z,42.50
2017-06-03T16:34:51.358Z,42.90
2017-06-03T16:37:20.142Z,43.00
2017-06-03T16:39:48.902Z,43.50
2017-06-03T16:42:17.666Z,43.80
2017-06-03T16:44:46.438Z,43.50
2017-06-03T16:47:15.202Z,43.10
2017-06-03T16:49:43.970Z,43.00
2017-06-03T16:52:12.758Z,43.40
2017-06-03T16:54:41.522Z,43.90
2017-06-03T16:57:10.282Z,44.00
2017-06-03T16:59:39.074Z,44.20
2017-06-03T17:02:07.834Z,43.30
2017-06-03T17:04:36.598Z,45.30
2017-06-03T17:07:05.386Z,45.70
2017-06-03T17:09:34.146Z,46.10
2017-06-03T17:12:02.906Z,46.40
2017-06-03T17:14:31.674Z,47.40
2017-06-03T17:17:00.434Z,47.60
2017-06-03T17:19:29.198Z,47.80
2017-06-03T17:21:57.982Z,48.30
2017-06-03T17:24:26.741Z,48.20
2017-06-03T17:26:55.509Z,48.70
2017-06-03T17:29:24.277Z,47.50
2017-06-03T17:31:53.038Z,47.60
2017-06-03T17:34:21.797Z,48.00
2017-06-03T17:36:50.586Z,48.30
2017-06-03T17:39:19.346Z,48.90
2017-06-03T17:41:48.110Z,49.70
2017-06-03T17:44:16.894Z,51.20
2017-06-03T17:46:45.653Z,52.70
2017-06-03T17:49:14.413Z,53.90
2017-06-03T17:51:43.185Z,55.90
2017-06-03T17:54:11.945Z,57.30
2017-06-03T17:56:40.717Z,58.30
2017-06-03T17:59:09.489Z,59.20
2017-06-03T18:01:38.305Z,59.80
2017-06-03T18:04:07.041Z,59.00
2017-06-03T18:06:35.835Z,58.60
2017-06-03T18:09:04.594Z,57.70
2017-06-03T18:11:33.357Z,57.40
2017-06-03T18:14:02.161Z,57.60
2017-06-03T18:16:30.921Z,57.20
2017-06-03T18:18:59.685Z,57.80
2017-06-03T18:21:28.480Z,58.30
2017-06-03T18:23:57.237Z,58.90
2017-06-03T18:26:25.997Z,59.60
2017-06-03T18:28:54.765Z,60.10
2017-06-03T18:31:23.529Z,60.70
2017-06-03T18:33:52.289Z,61.30
2017-06-03T18:36:21.397Z,61.60
2017-06-03T18:38:50.165Z,62.50
2017-06-03T18:41:18.937Z,62.70
2017-06-03T18:43:47.735Z,63.20
2017-06-03T18:46:16.533Z,63.60
2017-06-03T18:48:45.292Z,64.40
2017-06-03T18:51:15.001Z,65.20
2017-06-03T18:53:43.761Z,65.70
2017-06-03T18:56:18.277Z,65.40
2017-06-03T18:58:52.657Z,66.10
2017-06-03T19:01:27.003Z,66.50
2017-06-03T19:04:01.420Z,66.60
2017-06-03T19:06:35.897Z,67.10
2017-06-03T19:09:10.252Z,67.80
2017-06-03T19:11:44.692Z,68.20
2017-06-03T19:14:19.161Z,69.10
2017-06-03T19:16:53.421Z,69.00
2017-06-03T19:19:27.900Z,69.10
2017-06-03T19:27:19.828Z,69.90
2017-06-03T19:29:54.209Z,69.60
2017-06-03T19:32:22.984Z,69.60
2017-06-03T19:34:51.744Z,69.90
2017-06-03T19:37:20.548Z,69.30
2017-06-03T19:39:49.309Z,69.10
2017-06-03T19:42:21.272Z,68.90
2017-06-03T19:44:50.048Z,69.00
2017-06-03T19:47:18.816Z,68.90
2017-06-03T19:49:47.584Z,69.00
2017-06-03T19:52:16.352Z,69.20
2017-06-03T19:54:45.125Z,71.80
2017-06-03T19:57:13.900Z,73.30
2017-06-03T19:59:42.709Z,73.70
2017-06-03T20:02:11.484Z,73.70
2017-06-03T20:04:40.256Z,72.40
2017-06-03T20:07:09.036Z,71.10
2017-06-03T20:09:37.048Z,71.10
2017-06-03T20:12:05.816Z,70.40
2017-06-03T20:14:34.596Z,70.40
2017-06-03T20:17:03.368Z,70.70
2017-06-03T20:19:31.369Z,70.60
2017-06-03T20:22:00.160Z,70.80
2017-06-03T20:24:28.933Z,70.90
2017-06-03T20:27:00.764Z,70.90
2017-06-03T20:29:31.424Z,70.40
2017-06-03T20:32:00.212Z,70.20
2017-06-03T20:34:29.022Z,70.20
2017-06-03T20:36:57.763Z,70.60
2017-06-03T20:39:26.557Z,70.60
2017-06-03T20:41:55.328Z,70.20
2017-06-03T20:44:24.087Z,70.10
2017-06-03T20:46:52.871Z,71.10
2017-06-03T20:49:21.635Z,70.30
2017-06-03T20:51:50.404Z,70.10
2017-06-03T20:54:19.183Z,69.80
2017-06-03T20:56:49.879Z,69.30
2017-06-03T20:59:19.595Z,69.00
2017-06-03T21:01:48.368Z,69.30
2017-06-03T21:04:21.083Z,69.70
2017-06-03T21:06:49.855Z,69.50
2017-06-03T21:09:18.624Z,69.30
2017-06-03T21:11:47.420Z,69.40
2017-06-03T21:14:16.183Z,69.70
2017-06-03T21:16:50.788Z,70.00
2017-06-03T21:19:19.555Z,69.20
2017-06-03T21:21:48.327Z,69.00
2017-06-03T21:24:17.131Z,68.10
2017-06-03T21:26:45.923Z,67.10
2017-06-03T21:29:14.683Z,69.50
2017-06-03T21:31:43.462Z,70.80
2017-06-03T21:34:12.219Z,71.00
2017-06-03T21:36:40.987Z,71.30
2017-06-03T21:39:09.779Z,71.50
2017-06-03T21:41:38.555Z,71.70
2017-06-03T21:44:07.331Z,73.60
2017-06-03T21:46:38.033Z,76.70
2017-06-03T21:49:08.767Z,77.30
2017-06-03T21:51:37.568Z,75.80
2017-06-03T21:54:06.335Z,76.30
2017-06-03T21:56:37.075Z,76.30
2017-06-03T21:59:05.850Z,75.00
2017-06-03T22:01:34.643Z,73.70
2017-06-03T22:04:04.399Z,74.90
2017-06-03T22:06:34.151Z,74.80
2017-06-03T22:09:02.915Z,74.10
2017-06-03T22:11:32.670Z,73.50
2017-06-03T22:14:01.448Z,72.20
2017-06-03T22:16:30.223Z,70.40
2017-06-03T22:18:59.951Z,70.60
2017-06-03T22:21:28.715Z,73.00
2017-06-03T22:23:57.475Z,74.20
2017-06-03T22:26:26.275Z,74.60
2017-06-03T22:28:55.042Z,71.90
2017-06-03T22:31:23.819Z,72.40
2017-06-03T22:33:52.606Z,73.30
2017-06-03T22:36:21.414Z,74.10
2017-06-03T22:38:50.303Z,74.70
2017-06-03T22:41:19.199Z,76.00
2017-06-03T22:43:47.962Z,78.40
2017-06-03T22:46:16.731Z,81.10
2017-06-03T22:48:45.510Z,82.20
2017-06-03T22:51:14.278Z,84.10
2017-06-03T22:53:43.046Z,84.40
2017-06-03T22:56:11.843Z,86.20
2017-06-03T22:58:40.610Z,89.10
2017-06-03T23:01:09.390Z,89.10
2017-06-03T23:03:39.361Z,90.80
2017-06-03T23:06:08.139Z,91.30
2017-06-03T23:08:36.923Z,92.10
2017-06-03T23:11:05.706Z,92.40
2017-06-03T23:13:34.482Z,92.40
2017-06-03T23:16:03.258Z,92.10
2017-06-03T23:18:32.051Z,92.00
2017-06-03T23:21:00.822Z,92.20
2017-06-03T23:23:29.598Z,91.30
2017-06-03T23:25:58.389Z,91.80
2017-06-03T23:28:27.164Z,91.90
2017-06-03T23:30:55.938Z,92.10
2017-06-03T23:33:24.758Z,92.40
2017-06-03T23:35:53.526Z,91.90
2017-06-03T23:38:22.298Z,91.90
2017-06-03T23:40:51.082Z,91.60
2017-06-03T23:43:19.890Z,91.20
2017-06-03T23:45:48.658Z,91.00
2017-06-03T23:48:16.670Z,91.00
2017-06-03T23:50:45.441Z,91.70
2017-06-03T23:53:14.221Z,91.40
2017-06-03T23:55:43.017Z,91.60
2017-06-03T23:58:11.785Z,91.10
